Time;durP1;ratioP1;P1;durP2;ratioP2;P2;SDS_P1;SDS_P2;PMS_P1;PMS_P2;Temp;Humidity;BMP_temperature;BMP_pressure;BME280_temperature;BME280_humidity;BME280_pressure;Samples;Min_cycle;Max_cycle;Signal;HPM_P1;HPM_P2
2024/01/11 00:00:14;;;;;;;30.30;17.48;;;-4.10;99.90;;;;;;6238866;23;20524;-80
2024/01/11 00:02:40;;;;;;;29.20;16.85;;;-4.20;99.90;;;;;;6238252;23;20024;-80
2024/01/11 00:05:06;;;;;;;27.38;16.70;;;-4.20;99.90;;;;;;6239235;23;20016;-81
2024/01/11 00:07:32;;;;;;;37.05;19.23;;;-4.20;99.90;;;;;;6239042;23;20024;-81
2024/01/11 00:09:58;;;;;;;30.83;18.48;;;-4.20;99.90;;;;;;6239004;23;20024;-81
2024/01/11 00:12:23;;;;;;;22.97;13.93;;;-4.20;99.90;;;;;;6238752;23;20012;-81
2024/01/11 00:14:49;;;;;;;31.33;18.23;;;-4.20;99.90;;;;;;6238710;23;20027;-81
2024/01/11 00:17:15;;;;;;;31.23;17.88;;;-4.20;99.90;;;;;;6239217;23;20023;-81
2024/01/11 00:19:41;;;;;;;;;;;-4.20;99.90;;;;;;6239645;23;20012;-80
2024/01/11 00:22:07;;;;;;;28.58;16.13;;;-4.20;99.90;;;;;;6238153;23;19973;-81
2024/01/11 00:24:32;;;;;;;27.63;16.15;;;-4.20;99.90;;;;;;6238866;23;20099;-81
2024/01/11 00:26:58;;;;;;;24.87;14.33;;;-4.30;99.90;;;;;;6237594;23;20043;-81
2024/01/11 00:29:23;;;;;;;25.53;14.73;;;-4.30;99.90;;;;;;6238351;23;20615;-81
2024/01/11 00:31:49;;;;;;;17.70;10.27;;;-4.40;99.90;;;;;;6239307;23;20020;-81
2024/01/11 00:34:14;;;;;;;27.20;14.57;;;-4.40;99.90;;;;;;6240624;23;20328;-80
2024/01/11 00:36:40;;;;;;;29.88;16.52;;;-4.50;99.90;;;;;;6240890;23;20095;-81
2024/01/11 00:39:05;;;;;;;29.63;15.82;;;-4.50;99.90;;;;;;6239631;23;20012;-81
2024/01/11 00:41:31;;;;;;;26.33;15.52;;;-4.50;99.90;;;;;;6237738;23;20487;-80
2024/01/11 00:43:57;;;;;;;18.90;11.38;;;-4.60;99.90;;;;;;6239659;23;20008;-81
2024/01/11 00:46:23;;;;;;;27.08;15.70;;;-4.60;99.90;;;;;;6240279;22;20013;-81
2024/01/11 00:48:48;;;;;;;17.17;10.60;;;-4.70;99.90;;;;;;6240985;23;20016;-80
2024/01/11 00:51:15;;;;;;;23.40;13.27;;;-4.70;99.90;;;;;;6238421;23;20290;-81
2024/01/11 00:53:41;;;;;;;24.02;13.98;;;-4.80;99.90;;;;;;6240980;23;20337;-81
2024/01/11 00:56:15;;;;;;;26.48;15.30;;;-4.90;99.90;;;;;;6239299;23;20015;-80
2024/01/11 00:58:41;;;;;;;27.40;15.48;;;-4.90;99.90;;;;;;6237828;23;20374;-80
2024/01/11 01:01:09;;;;;;;28.10;15.63;;;-4.90;99.90;;;;;;6238240;23;20139;-80
2024/01/11 01:03:35;;;;;;;25.90;15.27;;;-4.90;99.90;;;;;;6238058;23;20015;-80
2024/01/11 01:06:01;;;;;;;27.98;15.50;;;-4.90;99.90;;;;;;6238365;23;20078;-80
2024/01/11 01:08:27;;;;;;;27.35;15.32;;;-5.00;99.90;;;;;;6240105;23;20171;-80
2024/01/11 01:10:52;;;;;;;22.50;12.48;;;-5.00;99.90;;;;;;6238974;23;20049;-80
2024/01/11 01:13:18;;;;;;;21.48;12.27;;;-5.00;99.90;;;;;;6237146;23;20177;-80
2024/01/11 01:15:44;;;;;;;26.75;14.85;;;-5.00;99.90;;;;;;6211828;23;20009;-80
2024/01/11 01:18:09;;;;;;;28.08;15.55;;;-5.00;99.90;;;;;;6238798;23;20516;-80
2024/01/11 01:20:35;;;;;;;30.20;16.63;;;-5.00;99.90;;;;;;6238730;23;20017;-80
2024/01/11 01:23:01;;;;;;;32.28;17.27;;;-5.00;99.90;;;;;;6239130;23;20504;-80
2024/01/11 01:25:27;;;;;;;35.63;19.67;;;-4.90;99.90;;;;;;6239956;23;20043;-79
2024/01/11 01:27:52;;;;;;;30.60;16.27;;;-4.90;99.90;;;;;;6238948;23;20016;-80
2024/01/11 01:30:18;;;;;;;37.28;20.02;;;-4.80;99.90;;;;;;6240095;23;20087;-80
2024/01/11 01:32:44;;;;;;;33.00;17.75;;;-4.70;99.90;;;;;;6239263;23;20073;-80
2024/01/11 01:35:09;;;;;;;33.50;18.85;;;-4.70;99.90;;;;;;6239342;23;20372;-79
2024/01/11 01:37:35;;;;;;;33.28;18.60;;;-4.70;99.90;;;;;;6241317;23;20087;-80
2024/01/11 01:40:01;;;;;;;31.17;17.63;;;-4.70;99.90;;;;;;6239551;23;20097;-80
2024/01/11 01:42:26;;;;;;;35.30;19.17;;;-4.70;99.90;;;;;;6212904;23;20267;-80
2024/01/11 01:44:52;;;;;;;39.10;21.33;;;-4.70;99.90;;;;;;6239411;23;20016;-80
2024/01/11 01:47:18;;;;;;;36.47;19.50;;;-4.70;99.90;;;;;;6239241;23;20262;-80
2024/01/11 01:49:44;;;;;;;;;;;-4.70;99.90;;;;;;6240698;23;20449;-81
2024/01/11 01:52:14;;;;;;;37.95;19.88;;;-4.70;99.90;;;;;;6214924;23;19921;-80
2024/01/11 01:54:39;;;;;;;35.88;18.70;;;-4.70;99.90;;;;;;6189935;23;20528;-80
2024/01/11 01:57:09;;;;;;;34.38;18.70;;;-4.60;99.90;;;;;;6188567;23;20016;-80
2024/01/11 01:59:35;;;;;;;36.22;19.30;;;-4.60;99.90;;;;;;6189406;23;20019;-80
2024/01/11 02:02:01;;;;;;;25.13;13.75;;;-4.60;99.90;;;;;;6241032;23;20008;-80
2024/01/11 02:04:27;;;;;;;30.17;16.70;;;-4.60;99.90;;;;;;6214918;23;20507;-81
2024/01/11 02:06:54;;;;;;;26.33;13.98;;;-4.70;99.90;;;;;;6215004;23;20080;-81
2024/01/11 02:09:19;;;;;;;30.27;16.83;;;-4.70;99.90;;;;;;6240899;23;20058;-79
2024/01/11 02:11:45;;;;;;;29.30;16.00;;;-4.70;99.90;;;;;;6213827;23;20020;-79
2024/01/11 02:14:11;;;;;;;26.15;14.88;;;-4.80;99.90;;;;;;6190614;23;20019;-80
2024/01/11 02:16:37;;;;;;;28.05;15.60;;;-4.90;99.90;;;;;;6190019;23;20016;-80
2024/01/11 02:19:06;;;;;;;29.33;15.15;;;-4.90;99.90;;;;;;6215062;23;20016;-80
2024/01/11 02:21:33;;;;;;;31.52;17.08;;;-5.00;99.90;;;;;;6213877;23;20016;-80
2024/01/11 02:24:03;;;;;;;30.35;15.93;;;-5.00;99.90;;;;;;6188643;23;20016;-80
2024/01/11 02:26:29;;;;;;;29.13;15.27;;;-5.10;99.90;;;;;;6213003;23;20012;-80
2024/01/11 02:28:54;;;;;;;30.45;15.48;;;-5.10;99.90;;;;;;6213745;23;20290;-80
2024/01/11 02:31:20;;;;;;;23.93;12.83;;;-5.10;99.90;;;;;;6213595;23;20471;-80
2024/01/11 02:33:47;;;;;;;24.55;14.10;;;-5.20;99.90;;;;;;6213757;23;20258;-80
2024/01/11 02:36:13;;;;;;;27.40;14.20;;;-5.20;99.90;;;;;;6188321;23;20034;-80
2024/01/11 02:38:41;;;;;;;36.30;19.20;;;-5.20;99.90;;;;;;6213561;23;20027;-80
2024/01/11 02:41:08;;;;;;;31.52;17.92;;;-5.10;99.90;;;;;;6211669;23;20322;-80
2024/01/11 02:43:35;;;;;;;29.58;15.57;;;-5.20;99.90;;;;;;6188255;23;20023;-80
2024/01/11 02:46:02;;;;;;;38.42;20.23;;;-5.20;99.90;;;;;;6188288;23;20095;-80
2024/01/11 02:48:30;;;;;;;;;;;-5.30;99.90;;;;;;6213839;23;20288;-80
2024/01/11 02:50:57;;;;;;;36.88;18.38;;;-5.30;99.90;;;;;;6221523;23;19973;-80
2024/01/11 02:53:23;;;;;;;36.25;17.58;;;-5.30;99.90;;;;;;6238617;23;20277;-80
2024/01/11 02:55:50;;;;;;;31.70;16.42;;;-5.40;99.90;;;;;;6237867;23;20066;-80
2024/01/11 02:58:15;;;;;;;29.00;16.08;;;-5.40;99.90;;;;;;6238594;23;20012;-79
2024/01/11 03:00:41;;;;;;;29.13;15.37;;;-5.40;99.90;;;;;;6237908;23;20515;-80
2024/01/11 03:03:06;;;;;;;30.93;15.80;;;-5.40;99.90;;;;;;6212832;23;20247;-79
2024/01/11 03:05:32;;;;;;;25.92;14.30;;;-5.50;99.90;;;;;;6237424;23;20219;-79
2024/01/11 03:07:58;;;;;;;27.47;14.83;;;-5.50;99.90;;;;;;6239810;23;20024;-79
2024/01/11 03:10:23;;;;;;;31.10;16.03;;;-5.60;99.90;;;;;;6212863;23;20250;-80
2024/01/11 03:12:49;;;;;;;27.77;14.73;;;-5.60;99.90;;;;;;6237813;23;20243;-80
2024/01/11 03:15:15;;;;;;;28.80;15.68;;;-5.60;99.90;;;;;;6238983;23;20059;-79
2024/01/11 03:17:41;;;;;;;30.83;16.70;;;-5.60;99.90;;;;;;6212997;23;20020;-79
2024/01/11 03:20:07;;;;;;;25.50;14.57;;;-5.60;99.90;;;;;;6238603;23;20150;-79
2024/01/11 03:22:33;;;;;;;;;;;-5.70;99.90;;;;;;6238712;23;20568;-79
2024/01/11 03:24:58;;;;;;;28.60;14.02;;;-5.70;99.90;;;;;;6237643;23;19923;-79
2024/01/11 03:27:24;;;;;;;30.08;15.20;;;-5.60;99.90;;;;;;6212842;23;20035;-80
2024/01/11 03:29:50;;;;;;;29.10;15.60;;;-5.60;99.90;;;;;;6213281;23;20108;-80
2024/01/11 03:32:16;;;;;;;27.98;14.93;;;-5.50;99.90;;;;;;6238475;23;20330;-79
2024/01/11 03:34:41;;;;;;;31.42;15.60;;;-5.50;99.90;;;;;;6239786;23;20055;-80
2024/01/11 03:37:07;;;;;;;32.83;17.20;;;-5.50;99.90;;;;;;6238486;23;20115;-80
2024/01/11 03:39:34;;;;;;;32.10;16.77;;;-5.40;99.90;;;;;;6237316;23;20646;-80
2024/01/11 03:41:59;;;;;;;30.55;16.45;;;-5.40;99.90;;;;;;6237622;23;20081;-79
2024/01/11 03:44:25;;;;;;;28.73;15.48;;;-5.40;99.90;;;;;;6238191;23;20012;-79
2024/01/11 03:46:51;;;;;;;24.30;13.20;;;-5.30;99.90;;;;;;6238546;23;20415;-79
2024/01/11 03:49:17;;;;;;;25.02;13.90;;;-5.30;99.90;;;;;;6240071;22;20238;-79
2024/01/11 03:51:43;;;;;;;26.07;13.43;;;-5.30;99.90;;;;;;6237644;23;20377;-80
2024/01/11 03:54:08;;;;;;;25.50;13.35;;;-5.30;99.90;;;;;;6236886;23;20262;-79
2024/01/11 03:56:38;;;;;;;27.23;15.30;;;-5.30;99.90;;;;;;6237937;23;20090;-78
2024/01/11 03:59:05;;;;;;;23.50;12.75;;;-5.30;99.90;;;;;;6239433;22;20255;-78
2024/01/11 04:01:31;;;;;;;23.95;13.57;;;-5.30;99.90;;;;;;6239968;22;20023;-79
2024/01/11 04:03:57;;;;;;;26.27;13.48;;;-5.20;99.90;;;;;;6238582;23;20035;-78
2024/01/11 04:06:24;;;;;;;33.97;17.52;;;-5.20;99.90;;;;;;6239636;23;20433;-79
2024/01/11 04:08:50;;;;;;;31.58;16.10;;;-5.20;99.90;;;;;;6239403;22;20036;-78
2024/01/11 04:11:16;;;;;;;;;;;-5.20;99.90;;;;;;6240068;23;20014;-78
2024/01/11 04:13:42;;;;;;;34.15;17.65;;;-5.10;99.90;;;;;;6239941;22;19921;-78
2024/01/11 04:16:08;;;;;;;35.55;18.80;;;-5.00;99.90;;;;;;6237859;23;20353;-78
2024/01/11 04:18:34;;;;;;;35.35;18.08;;;-4.90;99.90;;;;;;6237836;23;20342;-79
2024/01/11 04:20:59;;;;;;;33.30;17.45;;;-4.90;99.90;;;;;;6239623;23;20051;-79
2024/01/11 04:23:25;;;;;;;28.77;15.73;;;-4.80;99.90;;;;;;6237373;23;20023;-78
2024/01/11 04:25:51;;;;;;;30.98;17.70;;;-4.70;99.90;;;;;;6237223;23;20016;-78
2024/01/11 04:28:17;;;;;;;30.27;16.80;;;-4.70;99.90;;;;;;6237994;23;20016;-78
2024/01/11 04:30:43;;;;;;;31.42;17.02;;;-4.60;99.90;;;;;;6237689;23;20026;-78
2024/01/11 04:33:09;;;;;;;28.65;16.05;;;-4.50;99.90;;;;;;6237974;23;20083;-79
2024/01/11 04:35:34;;;;;;;27.77;15.52;;;-4.40;99.90;;;;;;6237732;23;20422;-79
2024/01/11 04:38:00;;;;;;;36.33;18.55;;;-4.40;99.90;;;;;;6237061;23;20031;-79
2024/01/11 04:40:26;;;;;;;31.83;18.00;;;-4.30;99.90;;;;;;6237624;23;20047;-78
2024/01/11 04:42:51;;;;;;;37.53;19.52;;;-4.20;99.90;;;;;;6236702;23;20040;-78
2024/01/11 04:45:17;;;;;;;41.67;21.90;;;-4.20;99.90;;;;;;6237258;23;20016;-78
2024/01/11 04:47:42;;;;;;;36.70;21.47;;;-4.10;99.90;;;;;;6236739;23;20023;-79
2024/01/11 04:50:08;;;;;;;36.50;19.27;;;-4.00;99.90;;;;;;6237472;22;20247;-79
2024/01/11 04:52:34;;;;;;;44.80;23.40;;;-4.00;99.90;;;;;;6236686;23;20024;-78
2024/01/11 04:55:00;;;;;;;41.22;22.42;;;-3.90;99.90;;;;;;6237921;23;20019;-78
2024/01/11 04:57:25;;;;;;;44.42;24.88;;;-3.80;99.90;;;;;;6238602;23;20012;-78
2024/01/11 04:59:51;;;;;;;45.83;25.73;;;-3.70;99.90;;;;;;6237545;23;20004;-78
2024/01/11 05:02:16;;;;;;;39.63;21.00;;;-3.60;99.90;;;;;;6236694;23;20251;-81
2024/01/11 05:04:42;;;;;;;50.40;25.53;;;-3.60;99.90;;;;;;6211527;23;20556;-78
2024/01/11 05:07:08;;;;;;;40.97;21.95;;;-3.50;99.90;;;;;;6237477;23;20330;-79
2024/01/11 05:09:34;;;;;;;43.80;23.13;;;-3.50;99.90;;;;;;6237766;23;20455;-80
2024/01/11 05:11:59;;;;;;;41.47;22.83;;;-3.40;99.90;;;;;;6236687;23;20235;-80
2024/01/11 05:14:25;;;;;;;37.27;20.57;;;-3.40;99.90;;;;;;6235596;23;20387;-80
2024/01/11 05:16:50;;;;;;;39.33;21.60;;;-3.30;99.90;;;;;;6211443;23;20245;-80
2024/01/11 05:19:16;;;;;;;37.33;20.93;;;-3.30;99.90;;;;;;6211917;23;20283;-80
2024/01/11 05:21:41;;;;;;;37.60;21.20;;;-3.20;99.90;;;;;;6211585;23;20539;-80
2024/01/11 05:24:07;;;;;;;37.93;20.30;;;-3.20;99.90;;;;;;6238903;23;20235;-79
2024/01/11 05:26:33;;;;;;;28.73;15.37;;;-3.20;99.90;;;;;;6237204;23;20012;-79
2024/01/11 05:28:59;;;;;;;33.13;19.43;;;-3.10;99.90;;;;;;6237636;23;20235;-79
2024/01/11 05:31:24;;;;;;;38.00;20.60;;;-3.10;99.90;;;;;;6237472;23;20024;-79
2024/01/11 05:33:50;;;;;;;27.80;15.60;;;-3.10;99.90;;;;;;6238854;23;20016;-79
2024/01/11 05:36:15;;;;;;;32.10;17.80;;;-3.10;99.90;;;;;;6237558;23;20091;-80
2024/01/11 05:38:41;;;;;;;34.80;19.27;;;-3.00;99.90;;;;;;6239348;23;20261;-79
2024/01/11 05:41:07;;;;;;;33.83;19.42;;;-3.00;99.90;;;;;;6237220;23;20016;-79
2024/01/11 05:43:33;;;;;;;36.15;21.38;;;-3.00;99.90;;;;;;6239063;23;20477;-78
2024/01/11 05:45:59;;;;;;;39.57;21.27;;;-2.90;99.90;;;;;;6237209;23;20016;-78
2024/01/11 05:48:24;;;;;;;29.70;15.63;;;-2.90;99.90;;;;;;6237787;23;20246;-77
2024/01/11 05:50:50;;;;;;;35.63;20.17;;;-2.80;99.90;;;;;;6212213;23;20025;-78
2024/01/11 05:53:17;;;;;;;38.53;21.48;;;-2.80;99.90;;;;;;6237122;23;20283;-78
2024/01/11 05:55:42;;;;;;;38.05;20.52;;;-2.80;99.90;;;;;;6236711;23;20027;-79
2024/01/11 05:58:08;;;;;;;37.60;20.53;;;-2.70;99.90;;;;;;6237250;23;20394;-78
2024/01/11 06:00:34;;;;;;;32.28;18.55;;;-2.70;99.90;;;;;;6237436;23;20263;-78
2024/01/11 06:02:59;;;;;;;35.33;21.17;;;-2.60;99.90;;;;;;6239455;23;20016;-78
2024/01/11 06:05:25;;;;;;;38.90;21.20;;;-2.60;99.90;;;;;;6240423;23;20016;-79
2024/01/11 06:07:51;;;;;;;39.38;21.83;;;-2.50;99.90;;;;;;6239777;23;20445;-79
2024/01/11 06:10:17;;;;;;;39.00;22.27;;;-2.50;99.90;;;;;;6239420;23;20012;-79
2024/01/11 06:12:43;;;;;;;38.13;21.30;;;-2.50;99.90;;;;;;6238691;23;20251;-79
2024/01/11 06:15:09;;;;;;;34.38;18.85;;;-2.40;99.90;;;;;;6240851;23;20051;-79
2024/01/11 06:17:35;;;;;;;36.20;19.45;;;-2.40;99.90;;;;;;6238466;23;20083;-79
2024/01/11 06:20:01;;;;;;;35.00;19.95;;;-2.40;99.90;;;;;;6238701;23;20393;-80
2024/01/11 06:22:27;;;;;;;38.13;21.75;;;-2.30;99.90;;;;;;6238897;23;20016;-79
2024/01/11 06:24:53;;;;;;;38.72;22.23;;;-2.30;99.90;;;;;;6213662;23;20008;-79
2024/01/11 06:27:18;;;;;;;31.93;18.70;;;-2.30;99.90;;;;;;6238482;23;20095;-79
2024/01/11 06:29:44;;;;;;;42.10;23.27;;;-2.30;99.90;;;;;;6239201;23;20012;-79
2024/01/11 06:32:10;;;;;;;44.37;25.30;;;-2.20;99.90;;;;;;6238689;23;20020;-80
2024/01/11 06:34:36;;;;;;;40.77;22.53;;;-2.20;99.90;;;;;;6238885;23;20242;-79
2024/01/11 06:37:02;;;;;;;44.05;23.27;;;-2.20;99.90;;;;;;6238175;23;20081;-79
2024/01/11 06:39:29;;;;;;;39.38;22.30;;;-2.10;99.90;;;;;;6240294;23;20378;-79
2024/01/11 06:41:55;;;;;;;40.55;22.75;;;-2.10;99.90;;;;;;6239058;23;20263;-80
2024/01/11 06:44:21;;;;;;;37.83;22.17;;;-2.10;99.90;;;;;;6238974;23;20062;-80
2024/01/11 06:46:46;;;;;;;43.63;25.10;;;-2.10;99.90;;;;;;6238275;23;20012;-79
2024/01/11 06:49:12;;;;;;;44.65;25.08;;;-2.00;99.90;;;;;;6238669;23;20032;-78
2024/01/11 06:51:39;;;;;;;43.65;25.10;;;-2.00;99.90;;;;;;6238425;23;20016;-79
2024/01/11 06:54:04;;;;;;;;;;;-2.00;99.90;;;;;;6239104;23;20012;-82
2024/01/11 06:56:30;;;;;;;42.17;23.55;;;-2.00;99.90;;;;;;6212969;23;20266;-78
2024/01/11 06:58:56;;;;;;;45.28;24.08;;;-1.90;99.90;;;;;;6238855;23;20030;-78
2024/01/11 07:01:22;;;;;;;43.65;23.48;;;-1.90;99.90;;;;;;6239918;23;20035;-80
2024/01/11 07:03:48;;;;;;;34.08;20.38;;;-1.90;99.90;;;;;;6237629;23;20008;-79
2024/01/11 07:06:13;;;;;;;33.58;19.20;;;-1.90;99.90;;;;;;6237486;23;20038;-82
2024/01/11 07:08:39;;;;;;;29.57;17.53;;;-1.80;99.90;;;;;;6237756;23;20016;-82
2024/01/11 07:11:05;;;;;;;32.35;18.20;;;-1.80;99.90;;;;;;6234878;23;20289;-82
2024/01/11 07:13:31;;;;;;;30.25;18.02;;;-1.80;99.90;;;;;;6237469;23;20069;-82
2024/01/11 07:15:57;;;;;;;38.17;22.05;;;-1.80;99.90;;;;;;6212946;23;20382;-82
2024/01/11 07:18:24;;;;;;;33.35;19.30;;;-1.70;99.90;;;;;;6239919;23;20020;-82
2024/01/11 07:20:50;;;;;;;31.58;18.45;;;-1.70;99.90;;;;;;6238900;23;20019;-82
2024/01/11 07:23:16;;;;;;;34.65;19.27;;;-1.70;99.90;;;;;;6238532;23;20127;-82
2024/01/11 07:25:42;;;;;;;30.10;17.65;;;-1.70;99.90;;;;;;6239207;23;20319;-81
2024/01/11 07:28:08;;;;;;;37.95;20.67;;;-1.70;99.90;;;;;;6241439;23;20066;-82
2024/01/11 07:30:34;;;;;;;34.40;20.00;;;-1.70;99.90;;;;;;6240463;23;20012;-82
2024/01/11 07:33:00;;;;;;;36.92;21.40;;;-1.60;99.90;;;;;;6241307;23;20463;-82
2024/01/11 07:35:26;;;;;;;35.65;19.60;;;-1.60;99.90;;;;;;6239505;23;20044;-82
2024/01/11 07:37:51;;;;;;;30.13;18.38;;;-1.50;99.90;;;;;;6239479;23;20020;-82
2024/01/11 07:40:17;;;;;;;33.92;19.83;;;-1.50;99.90;;;;;;6213825;23;20016;-82
2024/01/11 07:42:43;;;;;;;28.83;16.87;;;-1.50;99.90;;;;;;6237426;23;20399;-82
2024/01/11 07:45:13;;;;;;;39.90;23.15;;;-1.40;99.90;;;;;;6238916;23;20310;-82
2024/01/11 07:47:39;;;;;;;41.25;21.77;;;-1.40;99.90;;;;;;6239084;23;20048;-82
2024/01/11 07:50:12;;;;;;;38.40;22.52;;;-1.40;99.90;;;;;;6241022;22;20016;-81
2024/01/11 07:52:38;;;;;;;42.20;24.48;;;-1.40;99.90;;;;;;6240695;23;20392;-82
2024/01/11 07:55:07;;;;;;;40.00;22.75;;;-1.40;99.90;;;;;;6214258;23;20557;-82
2024/01/11 07:57:34;;;;;;;36.05;21.38;;;-1.30;99.90;;;;;;6238752;23;20495;-82
2024/01/11 07:59:59;;;;;;;34.10;20.27;;;-1.30;99.90;;;;;;6238581;23;20096;-83
2024/01/11 08:02:25;;;;;;;36.42;21.83;;;-1.30;99.90;;;;;;6238967;23;20047;-83
2024/01/11 08:04:51;;;;;;;36.25;21.35;;;-1.20;99.90;;;;;;6240378;23;20023;-83
2024/01/11 08:07:16;;;;;;;32.33;19.73;;;-1.20;99.90;;;;;;6240678;23;20435;-82
2024/01/11 08:09:45;;;;;;;35.35;20.65;;;-1.20;99.90;;;;;;6238663;23;20032;-83
2024/01/11 08:12:14;;;;;;;37.47;21.48;;;-1.20;99.90;;;;;;6238017;23;20477;-82
2024/01/11 08:14:43;;;;;;;34.95;20.33;;;-1.20;99.90;;;;;;6238498;23;20012;-82
2024/01/11 08:17:09;;;;;;;40.22;21.48;;;-1.10;99.90;;;;;;6238514;23;20009;-82
2024/01/11 08:19:35;;;;;;;38.35;22.83;;;-1.10;99.90;;;;;;6238437;23;20327;-82
2024/01/11 08:22:01;;;;;;;38.03;22.73;;;-1.10;99.90;;;;;;6213539;23;20012;-82
2024/01/11 08:24:26;;;;;;;34.65;19.80;;;-1.10;99.90;;;;;;6238956;23;20016;-82
2024/01/11 08:26:53;;;;;;;32.72;19.23;;;-1.00;99.90;;;;;;6238348;23;20024;-82
2024/01/11 08:29:22;;;;;;;38.15;21.58;;;-1.00;99.90;;;;;;6214417;23;20020;-82
2024/01/11 08:31:47;;;;;;;34.00;20.65;;;-1.00;99.90;;;;;;6239261;23;20127;-82
2024/01/11 08:34:13;;;;;;;32.83;20.40;;;-0.90;99.90;;;;;;6238724;23;20416;-82
2024/01/11 08:36:39;;;;;;;35.67;21.07;;;-0.90;99.90;;;;;;6213811;23;20037;-82
2024/01/11 08:39:05;;;;;;;35.33;20.05;;;-0.90;99.90;;;;;;6238674;23;20274;-82
2024/01/11 08:41:32;;;;;;;35.60;20.58;;;-0.80;99.90;;;;;;6240068;23;20066;-82
2024/01/11 08:43:58;;;;;;;34.08;20.23;;;-0.80;99.90;;;;;;6238743;23;20276;-82
2024/01/11 08:46:27;;;;;;;30.02;18.92;;;-0.70;99.90;;;;;;6213681;23;20046;-82
2024/01/11 08:48:55;;;;;;;32.80;19.17;;;-0.70;99.90;;;;;;6240578;23;20134;-82
2024/01/11 08:51:21;;;;;;;32.97;19.42;;;-0.70;99.90;;;;;;6239311;22;20024;-83
2024/01/11 08:53:47;;;;;;;33.22;19.90;;;-0.60;99.90;;;;;;6212376;23;20491;-81
2024/01/11 08:56:13;;;;;;;36.60;21.93;;;-0.60;99.90;;;;;;6236714;23;20052;-82
2024/01/11 08:58:40;;;;;;;34.50;21.25;;;-0.60;99.90;;;;;;6238930;23;20004;-82
2024/01/11 09:01:08;;;;;;;35.88;20.60;;;-0.50;99.90;;;;;;6237544;23;20175;-82
2024/01/11 09:03:35;;;;;;;32.30;20.30;;;-0.50;99.90;;;;;;6237331;23;20433;-83
2024/01/11 09:06:01;;;;;;;33.17;20.17;;;-0.40;99.90;;;;;;6236403;23;20083;-82
2024/01/11 09:08:26;;;;;;;35.30;20.90;;;-0.40;99.90;;;;;;6236651;23;20012;-83
2024/01/11 09:10:53;;;;;;;32.00;19.90;;;-0.30;99.90;;;;;;6237206;23;20036;-83
2024/01/11 09:13:19;;;;;;;31.73;18.98;;;-0.30;99.90;;;;;;6236982;23;20027;-83
2024/01/11 09:15:44;;;;;;;32.10;18.75;;;-0.20;99.90;;;;;;6238628;23;20012;-83
2024/01/11 09:18:10;;;;;;;31.15;19.58;;;-0.20;99.90;;;;;;6239317;22;20022;-82
2024/01/11 09:20:36;;;;;;;33.53;19.85;;;-0.10;99.90;;;;;;6211967;23;20039;-81
2024/01/11 09:23:03;;;;;;;31.92;19.40;;;-0.10;99.90;;;;;;6237251;23;20097;-82
2024/01/11 09:25:32;;;;;;;29.70;18.25;;;0.00;99.90;;;;;;6212086;23;20012;-82
2024/01/11 09:27:58;;;;;;;32.50;19.67;;;0.00;99.90;;;;;;6211141;23;20016;-82
2024/01/11 09:30:24;;;;;;;30.17;19.30;;;0.10;99.90;;;;;;6212320;23;20016;-82
2024/01/11 09:32:49;;;;;;;34.90;19.97;;;0.10;99.90;;;;;;6237507;23;20020;-82
2024/01/11 09:35:15;;;;;;;28.83;18.35;;;0.20;99.90;;;;;;6236565;23;20782;-81
2024/01/11 09:37:42;;;;;;;26.75;16.45;;;0.20;99.90;;;;;;6236301;23;20020;-82
2024/01/11 09:40:10;;;;;;;29.40;17.13;;;0.20;99.90;;;;;;6212097;23;20067;-82
2024/01/11 09:42:37;;;;;;;29.70;18.17;;;0.30;99.90;;;;;;6235611;23;20013;-81
2024/01/11 09:45:08;;;;;;;29.88;18.10;;;0.30;99.90;;;;;;6238653;23;20353;-81
2024/01/11 09:47:35;;;;;;;29.42;18.00;;;0.40;99.90;;;;;;6238692;23;20012;-82
2024/01/11 09:50:03;;;;;;;30.77;19.13;;;0.50;99.90;;;;;;6195116;22;1066102;-81
2024/01/11 09:52:31;;;;;;;29.90;18.48;;;0.50;99.90;;;;;;6241857;23;20539;-81
2024/01/11 09:55:00;;;;;;;29.42;18.10;;;0.50;99.90;;;;;;6239932;23;20012;-81
2024/01/11 09:57:29;;;;;;;28.83;18.25;;;0.50;99.90;;;;;;6239664;23;20023;-81
2024/01/11 09:59:57;;;;;;;29.20;17.30;;;0.60;99.90;;;;;;6214867;23;20016;-82
2024/01/11 10:02:29;;;;;;;29.48;19.10;;;0.60;99.90;;;;;;6240408;23;20016;-82
2024/01/11 10:04:55;;;;;;;32.42;19.60;;;0.70;99.90;;;;;;6240032;23;20020;-82
2024/01/11 10:07:24;;;;;;;30.67;18.73;;;0.70;99.90;;;;;;6214332;23;20437;-81
2024/01/11 10:09:50;;;;;;;30.30;18.60;;;0.70;99.90;;;;;;6238299;23;20043;-82
2024/01/11 10:12:23;;;;;;;29.10;17.90;;;0.70;99.90;;;;;;6239530;23;20451;-82
2024/01/11 10:14:48;;;;;;;25.23;16.63;;;0.70;99.90;;;;;;6240373;23;20013;-81
2024/01/11 10:17:14;;;;;;;28.27;17.60;;;0.80;99.90;;;;;;6214669;23;20016;-81
2024/01/11 10:19:40;;;;;;;22.27;14.18;;;0.90;99.90;;;;;;6239916;23;20504;-82
2024/01/11 10:22:06;;;;;;;29.83;18.52;;;0.90;99.90;;;;;;6240050;23;20047;-81
2024/01/11 10:24:32;;;;;;;29.58;18.35;;;0.90;99.90;;;;;;6239077;23;20012;-82
2024/01/11 10:27:01;;;;;;;30.08;19.13;;;0.90;99.90;;;;;;6239747;23;20058;-81
2024/01/11 10:29:33;;;;;;;28.52;17.83;;;0.90;99.90;;;;;;6214798;23;20017;-82
2024/01/11 10:31:59;;;;;;;30.38;18.73;;;0.90;99.90;;;;;;6214864;23;20012;-82
2024/01/11 10:34:24;;;;;;;31.43;19.37;;;0.90;99.90;;;;;;6240245;23;20050;-82
2024/01/11 10:36:51;;;;;;;28.70;18.50;;;0.90;99.90;;;;;;6239332;23;20020;-82
2024/01/11 10:39:17;;;;;;;30.20;18.50;;;0.90;99.90;;;;;;6239293;23;20389;-83
2024/01/11 10:41:50;;;;;;;27.65;17.23;;;1.00;99.90;;;;;;6239292;23;20012;-82
2024/01/11 10:44:23;;;;;;;28.33;17.65;;;1.00;99.90;;;;;;6239945;23;20016;-82
2024/01/11 10:46:50;;;;;;;31.05;19.13;;;1.00;99.90;;;;;;6241628;23;20035;-82
2024/01/11 10:49:18;;;;;;;30.33;18.65;;;1.00;99.90;;;;;;6239693;23;20027;-82
2024/01/11 10:52:00;;;;;;;28.08;17.88;;;1.00;99.90;;;;;;6239435;23;20028;-82
2024/01/11 10:54:27;;;;;;;28.50;18.05;;;1.00;99.90;;;;;;6239043;23;20065;-82
2024/01/11 10:56:54;;;;;;;26.45;16.48;;;1.00;99.90;;;;;;6239108;23;20099;-82
2024/01/11 10:59:24;;;;;;;29.58;18.38;;;1.10;99.90;;;;;;6239810;23;20023;-82
2024/01/11 11:01:52;;;;;;;27.55;16.75;;;1.10;99.90;;;;;;6239769;23;20023;-82
2024/01/11 11:04:19;;;;;;;24.08;15.25;;;1.20;99.90;;;;;;6239699;23;20020;-82
2024/01/11 11:06:46;;;;;;;25.50;16.73;;;1.20;99.90;;;;;;6213442;23;20019;-82
2024/01/11 11:09:14;;;;;;;26.90;15.93;;;1.20;99.90;;;;;;6213291;23;20012;-82
2024/01/11 11:11:40;;;;;;;24.85;16.23;;;1.30;99.90;;;;;;6238535;23;20406;-82
2024/01/11 11:14:07;;;;;;;25.85;16.80;;;1.30;99.90;;;;;;6239435;23;20019;-82
2024/01/11 11:16:33;;;;;;;27.50;17.42;;;1.30;99.90;;;;;;6239341;23;20341;-82
2024/01/11 11:18:58;;;;;;;26.85;17.13;;;1.40;99.90;;;;;;6239288;23;20016;-79
2024/01/11 11:21:24;;;;;;;26.98;16.05;;;1.40;99.90;;;;;;6239190;23;20070;-81
2024/01/11 11:23:50;;;;;;;26.65;16.88;;;1.40;99.90;;;;;;6239164;23;20012;-82
2024/01/11 11:26:19;;;;;;;25.25;15.70;;;1.50;99.90;;;;;;6239617;23;20047;-82
2024/01/11 11:28:48;;;;;;;25.20;16.42;;;1.50;99.90;;;;;;6239272;23;20052;-83
2024/01/11 11:31:34;;;;;;;25.33;15.30;;;1.50;99.90;;;;;;6239522;23;20023;-82
2024/01/11 11:34:03;;;;;;;22.67;13.48;;;1.60;99.90;;;;;;6241560;22;20149;-82
2024/01/11 11:36:30;;;;;;;24.40;15.35;;;1.60;99.90;;;;;;6213204;23;20035;-82
2024/01/11 11:39:00;;;;;;;;;;;1.70;99.90;;;;;;6238828;23;20019;-82
2024/01/11 11:41:35;;;;;;;25.48;15.80;;;1.70;99.90;;;;;;6238487;23;19926;-82
2024/01/11 11:44:05;;;;;;;23.90;15.43;;;1.70;99.90;;;;;;6239393;23;20019;-81
2024/01/11 11:46:33;;;;;;;24.48;15.80;;;1.80;99.90;;;;;;6239981;23;20024;-81
2024/01/11 11:48:59;;;;;;;24.08;14.95;;;1.80;99.90;;;;;;6239271;23;20310;-81
2024/01/11 11:51:25;;;;;;;23.38;15.00;;;1.90;99.90;;;;;;6238365;23;20047;-82
2024/01/11 11:53:52;;;;;;;25.10;15.60;;;1.90;99.90;;;;;;6240117;23;20433;-81
2024/01/11 11:56:19;;;;;;;28.17;17.40;;;1.90;99.90;;;;;;6238427;23;20012;-82
2024/01/11 11:58:47;;;;;;;28.58;17.20;;;1.90;99.90;;;;;;6238725;23;20023;-81
2024/01/11 12:01:14;;;;;;;26.83;16.58;;;1.80;99.90;;;;;;6239083;23;20020;-82
2024/01/11 12:03:50;;;;;;;27.13;16.88;;;1.80;99.90;;;;;;6238398;23;20020;-80
2024/01/11 12:06:22;;;;;;;25.95;15.73;;;1.80;99.90;;;;;;6237389;23;20042;-81
2024/01/11 12:08:48;;;;;;;25.52;15.20;;;1.90;99.90;;;;;;6237279;23;20016;-79
2024/01/11 12:11:21;;;;;;;25.88;14.95;;;1.90;99.90;;;;;;6235228;23;20353;-80
2024/01/11 12:13:48;;;;;;;26.92;16.27;;;1.90;99.90;;;;;;6238724;23;20012;-80
2024/01/11 12:16:14;;;;;;;27.58;16.63;;;1.90;99.90;;;;;;6211825;23;20012;-80
2024/01/11 12:18:41;;;;;;;25.08;15.52;;;1.90;99.90;;;;;;6212842;23;20008;-80
2024/01/11 12:21:07;;;;;;;22.77;13.98;;;1.90;99.90;;;;;;6237323;23;20012;-80
2024/01/11 12:23:34;;;;;;;23.50;14.57;;;1.90;99.90;;;;;;6211758;23;20059;-80
2024/01/11 12:26:07;;;;;;;23.40;14.95;;;1.90;99.90;;;;;;6211796;23;20026;-81